Time;durP1;ratioP1;P1;durP2;ratioP2;P2;SDS_P1;SDS_P2;PMS_P1;PMS_P2;Temp;Humidity;BMP_temperature;BMP_pressure;BME280_temperature;BME280_humidity;BME280_pressure;Samples;Min_cycle;Max_cycle;Signal;HPM_P1;HPM_P2
2021/06/21 00:01:13;;;;;;;12.43;11.33;;;27.40;91.30;;;;;;5089324;28;20480;-68
2021/06/21 00:03:40;;;;;;;13.47;11.87;;;27.30;91.70;;;;;;5084798;28;20469;-68
2021/06/21 00:06:08;;;;;;;13.27;11.87;;;27.30;92.30;;;;;;5092849;28;21016;-67
2021/06/21 00:08:35;;;;;;;14.97;13.77;;;27.20;92.60;;;;;;5093623;28;20472;-68
2021/06/21 00:11:03;;;;;;;15.57;13.50;;;27.20;93.00;;;;;;5092917;28;20978;-68
2021/06/21 00:13:29;;;;;;;14.83;13.53;;;27.20;93.60;;;;;;5092052;28;20476;-68
2021/06/21 00:15:56;;;;;;;13.93;12.70;;;27.00;93.90;;;;;;5091813;28;20540;-68
2021/06/21 00:18:24;;;;;;;13.50;12.47;;;27.00;94.30;;;;;;5093413;28;20470;-68
2021/06/21 00:20:51;;;;;;;15.63;14.13;;;26.90;94.70;;;;;;5093071;28;20541;-68
2021/06/21 00:23:20;;;;;;;13.60;12.47;;;26.80;95.00;;;;;;5093199;28;20461;-68
2021/06/21 00:25:48;;;;;;;13.70;12.70;;;26.80;95.80;;;;;;5092760;28;20814;-68
2021/06/21 00:28:15;;;;;;;14.50;13.07;;;26.70;95.70;;;;;;5092781;28;20497;-68
2021/06/21 00:30:42;;;;;;;14.80;13.23;;;26.60;96.00;;;;;;5092909;28;20476;-68
2021/06/21 00:33:09;;;;;;;13.67;12.57;;;26.60;96.20;;;;;;5092720;28;20462;-68
2021/06/21 00:35:36;;;;;;;14.47;13.00;;;26.50;96.40;;;;;;5093309;28;20483;-67
2021/06/21 00:38:04;;;;;;;13.00;11.87;;;26.50;96.70;;;;;;5092564;28;20643;-68
2021/06/21 00:40:33;;;;;;;13.27;12.20;;;26.50;96.70;;;;;;5092840;28;20548;-68
2021/06/21 00:43:00;;;;;;;13.87;12.57;;;26.40;96.90;;;;;;5089102;28;20536;-68
2021/06/21 00:45:27;;;;;;;14.13;12.93;;;26.30;97.10;;;;;;5083600;28;20467;-68
2021/06/21 00:47:55;;;;;;;13.83;12.33;;;26.20;97.30;;;;;;5096941;27;20476;-68
2021/06/21 00:50:23;;;;;;;13.53;12.23;;;26.20;97.50;;;;;;5092072;28;20497;-68
2021/06/21 00:52:55;;;;;;;13.10;12.00;;;26.20;97.50;;;;;;5092172;28;20468;-68
2021/06/21 00:55:23;;;;;;;13.47;12.27;;;26.20;97.60;;;;;;5077414;27;20454;-68
2021/06/21 00:57:51;;;;;;;13.97;12.80;;;26.20;97.60;;;;;;5089451;28;20811;-69
2021/06/21 01:00:21;;;;;;;13.27;12.00;;;26.20;97.60;;;;;;5091073;28;20461;-69
2021/06/21 01:02:51;;;;;;;14.17;12.80;;;26.10;97.50;;;;;;5085750;28;20469;-68
2021/06/21 01:05:20;;;;;;;13.10;12.00;;;26.10;97.50;;;;;;5091435;28;20472;-68
2021/06/21 01:07:47;;;;;;;12.33;11.33;;;26.10;97.40;;;;;;5091295;28;20473;-68
2021/06/21 01:10:18;;;;;;;12.60;11.63;;;26.10;97.40;;;;;;5092036;28;20470;-68
2021/06/21 01:13:21;;;;;;;11.83;11.03;;;26.00;97.50;;;;;;5092056;28;20469;-68
2021/06/21 01:15:57;;;;;;;13.20;12.20;;;26.00;97.50;;;;;;5089459;28;20471;-68
2021/06/21 01:18:28;;;;;;;16.63;15.13;;;26.00;97.60;;;;;;5091775;28;20552;-68
2021/06/21 01:21:34;;;;;;;16.27;14.80;;;26.00;97.60;;;;;;5091624;28;20453;-69
2021/06/21 01:24:27;;;;;;;15.83;14.53;;;26.00;97.60;;;;;;5049549;28;20474;-68
2021/06/21 01:27:05;;;;;;;13.97;12.70;;;26.10;97.50;;;;;;5075962;28;20493;-69
2021/06/21 01:29:54;;;;;;;14.27;13.00;;;26.00;97.40;;;;;;5092338;28;20549;-69
2021/06/21 01:32:44;;;;;;;14.30;13.10;;;26.00;97.40;;;;;;5080526;28;20462;-69
2021/06/21 01:35:16;;;;;;;12.00;11.10;;;26.00;97.40;;;;;;5089456;28;20457;-68
2021/06/21 01:37:44;;;;;;;13.07;12.00;;;26.00;97.30;;;;;;5092540;28;20776;-69
2021/06/21 01:40:14;;;;;;;12.27;11.20;;;26.00;97.30;;;;;;5091866;28;20469;-69
2021/06/21 01:42:44;;;;;;;12.40;11.20;;;26.00;97.30;;;;;;5086006;28;20474;-68
2021/06/21 01:45:16;;;;;;;13.07;12.07;;;26.00;97.20;;;;;;5089860;28;20462;-68
2021/06/21 01:47:47;;;;;;;12.60;11.40;;;25.90;97.30;;;;;;5080954;28;20463;-69
2021/06/21 01:50:17;;;;;;;13.83;12.30;;;25.90;97.30;;;;;;5069597;28;20549;-68
2021/06/21 01:52:47;;;;;;;11.70;10.77;;;25.90;97.40;;;;;;5071706;28;20454;-68
2021/06/21 01:55:16;;;;;;;11.97;11.07;;;25.90;97.40;;;;;;5085216;28;20461;-69
2021/06/21 01:57:47;;;;;;;11.67;10.87;;;25.80;97.40;;;;;;5092242;28;20465;-68
2021/06/21 02:00:16;;;;;;;12.80;11.70;;;25.80;97.60;;;;;;5082485;28;20466;-68
2021/06/21 02:02:44;;;;;;;12.63;11.63;;;25.80;97.60;;;;;;5070156;28;20545;-69
2021/06/21 02:05:15;;;;;;;12.47;11.27;;;25.80;97.80;;;;;;5067777;28;20484;-68
2021/06/21 02:07:44;;;;;;;11.77;10.77;;;25.70;98.00;;;;;;5069655;28;20466;-68
2021/06/21 02:10:13;;;;;;;13.73;12.33;;;25.70;98.20;;;;;;5070102;28;20481;-69
2021/06/21 02:12:42;;;;;;;11.83;10.83;;;25.60;98.30;;;;;;5073874;28;20493;-69
2021/06/21 02:15:10;;;;;;;12.93;11.73;;;25.60;98.60;;;;;;5081273;28;20956;-68
2021/06/21 02:17:38;;;;;;;13.73;12.50;;;25.60;98.80;;;;;;5075142;28;20466;-68
2021/06/21 02:20:08;;;;;;;13.43;12.20;;;25.60;98.90;;;;;;5093656;28;20496;-68
2021/06/21 02:22:36;;;;;;;12.50;11.47;;;25.60;99.00;;;;;;5092120;28;20460;-68
2021/06/21 02:25:06;;;;;;;15.20;13.60;;;25.60;99.00;;;;;;5075618;28;20470;-68
2021/06/21 02:27:36;;;;;;;14.60;13.40;;;25.50;99.30;;;;;;5090824;28;20942;-68
2021/06/21 02:30:06;;;;;;;15.10;13.70;;;25.50;99.60;;;;;;5095509;28;20947;-68
2021/06/21 02:32:33;;;;;;;13.93;12.67;;;25.50;99.80;;;;;;5092376;28;20476;-68
2021/06/21 02:35:00;;;;;;;16.87;13.80;;;25.40;99.90;;;;;;5075507;28;20476;-69
2021/06/21 02:37:28;;;;;;;12.50;11.47;;;25.40;99.90;;;;;;5079010;28;20469;-68
2021/06/21 02:39:55;;;;;;;14.70;13.33;;;25.40;99.90;;;;;;5092925;28;20461;-68
2021/06/21 02:42:21;;;;;;;14.43;13.23;;;25.40;99.90;;;;;;5074818;28;20475;-69
2021/06/21 02:44:48;;;;;;;14.13;12.93;;;25.40;99.90;;;;;;5079073;28;20479;-68
2021/06/21 02:47:15;;;;;;;18.57;16.83;;;25.40;99.90;;;;;;5095090;28;20465;-66
2021/06/21 02:49:43;;;;;;;15.50;14.07;;;25.40;99.90;;;;;;5095391;28;20480;-67
2021/06/21 02:52:16;;;;;;;14.93;13.47;;;25.40;99.90;;;;;;5095336;28;20466;-68
2021/06/21 02:55:06;;;;;;;18.70;14.07;;;25.40;99.90;;;;;;5095310;28;20462;-68
2021/06/21 02:57:37;;;;;;;15.90;14.50;;;25.20;99.90;;;;;;5094899;28;20485;-68
2021/06/21 03:00:06;;;;;;;16.73;15.10;;;25.10;99.90;;;;;;5095264;28;20467;-68
2021/06/21 03:02:33;;;;;;;17.23;15.67;;;25.00;99.90;;;;;;5094689;28;20552;-67
2021/06/21 03:05:02;;;;;;;16.60;15.20;;;25.00;99.90;;;;;;5095142;28;20811;-68
2021/06/21 03:07:31;;;;;;;16.17;14.90;;;25.00;99.90;;;;;;5094593;28;20969;-69
2021/06/21 03:10:02;;;;;;;17.20;15.90;;;25.00;99.90;;;;;;5095151;28;20465;-69
2021/06/21 03:12:33;;;;;;;17.53;15.80;;;25.00;99.90;;;;;;5094406;28;20518;-69
2021/06/21 03:15:00;;;;;;;15.67;14.47;;;25.00;99.90;;;;;;5094866;28;20601;-66
2021/06/21 03:17:28;;;;;;;17.40;16.00;;;25.00;99.90;;;;;;5094201;28;20468;-67
2021/06/21 03:19:56;;;;;;;15.30;14.10;;;25.00;99.90;;;;;;5094981;28;20462;-68
2021/06/21 03:22:25;;;;;;;15.87;14.67;;;25.10;99.90;;;;;;5094100;28;20474;-68
2021/06/21 03:24:53;;;;;;;14.23;13.20;;;25.10;99.90;;;;;;5094647;28;20540;-68
2021/06/21 03:27:30;;;;;;;15.47;14.27;;;25.20;99.90;;;;;;5094300;28;20472;-68
2021/06/21 03:29:57;;;;;;;16.03;14.73;;;25.20;99.90;;;;;;5094726;28;20468;-67
2021/06/21 03:32:26;;;;;;;14.33;13.10;;;25.20;99.90;;;;;;5094171;28;20544;-67
2021/06/21 03:34:55;;;;;;;13.33;12.30;;;25.30;99.90;;;;;;5094440;28;20457;-67
2021/06/21 03:37:21;;;;;;;15.57;14.23;;;25.30;99.90;;;;;;5094186;28;20465;-67
2021/06/21 03:39:48;;;;;;;13.73;12.73;;;25.30;99.90;;;;;;5094333;28;20468;-68
2021/06/21 03:42:15;;;;;;;12.37;11.47;;;25.30;99.90;;;;;;5081981;28;20458;-67
2021/06/21 03:44:43;;;;;;;10.77;10.07;;;25.30;99.90;;;;;;5076658;28;20878;-66
2021/06/21 03:47:11;;;;;;;11.23;10.33;;;25.40;99.90;;;;;;5094286;28;20499;-67
2021/06/21 03:49:40;;;;;;;10.90;9.93;;;25.40;99.90;;;;;;5093889;28;20850;-68
2021/06/21 03:52:07;;;;;;;9.67;8.90;;;25.40;99.90;;;;;;5094304;28;20469;-68
2021/06/21 03:54:35;;;;;;;9.93;9.20;;;25.40;99.90;;;;;;5093638;28;20460;-68
2021/06/21 03:57:01;;;;;;;11.33;10.47;;;25.40;99.90;;;;;;5094092;28;20500;-67
2021/06/21 03:59:29;;;;;;;14.23;12.90;;;25.40;99.90;;;;;;5093800;28;20471;-68
2021/06/21 04:01:58;;;;;;;13.87;12.80;;;25.40;99.90;;;;;;5093901;28;20492;-68
2021/06/21 04:04:25;;;;;;;13.07;11.97;;;25.40;99.90;;;;;;5093489;28;20967;-68
2021/06/21 04:06:51;;;;;;;14.40;13.07;;;25.40;99.90;;;;;;5093839;28;20462;-68
2021/06/21 04:09:18;;;;;;;14.10;13.00;;;25.40;99.90;;;;;;5093747;28;20565;-67
2021/06/21 04:11:45;;;;;;;14.17;12.87;;;25.40;99.90;;;;;;5093286;28;20472;-67
2021/06/21 04:14:13;;;;;;;14.10;13.10;;;25.40;99.90;;;;;;5093681;28;22238;-68
2021/06/21 04:16:41;;;;;;;13.33;12.43;;;25.40;99.90;;;;;;5093431;28;20461;-68
2021/06/21 04:19:09;;;;;;;13.23;12.13;;;25.40;99.90;;;;;;5093573;28;20479;-68
2021/06/21 04:21:36;;;;;;;14.80;13.50;;;25.30;99.90;;;;;;5093433;28;20457;-68
2021/06/21 04:24:04;;;;;;;12.77;11.77;;;25.30;99.90;;;;;;5093545;28;20491;-67
2021/06/21 04:26:30;;;;;;;13.83;12.73;;;25.20;99.90;;;;;;5093312;28;20489;-68
2021/06/21 04:28:57;;;;;;;13.47;12.23;;;25.20;99.90;;;;;;5093410;28;20552;-68
2021/06/21 04:31:24;;;;;;;13.70;12.60;;;25.10;99.90;;;;;;5093538;28;20470;-68
2021/06/21 04:33:51;;;;;;;14.07;12.77;;;25.10;99.90;;;;;;5092485;28;20446;-68
2021/06/21 04:36:19;;;;;;;14.40;13.20;;;25.10;99.90;;;;;;5093440;28;20493;-68
2021/06/21 04:38:46;;;;;;;13.53;12.00;;;25.10;99.90;;;;;;5092875;28;20469;-68
2021/06/21 04:41:13;;;;;;;14.20;12.93;;;25.10;99.90;;;;;;5089916;28;20459;-68
2021/06/21 04:43:39;;;;;;;14.33;13.03;;;25.00;99.90;;;;;;5072496;28;20481;-68
2021/06/21 04:46:06;;;;;;;13.30;12.20;;;24.90;99.90;;;;;;5087707;28;20502;-68
2021/06/21 04:48:33;;;;;;;14.87;13.60;;;24.90;99.90;;;;;;5092691;28;20476;-68
2021/06/21 04:51:00;;;;;;;12.97;11.90;;;24.90;99.90;;;;;;5093049;28;20457;-68
2021/06/21 04:53:28;;;;;;;13.73;12.43;;;24.90;99.90;;;;;;5093223;28;20972;-69
2021/06/21 04:55:58;;;;;;;12.10;11.13;;;24.80;99.90;;;;;;5093002;28;21232;-68
2021/06/21 04:58:24;;;;;;;11.80;10.90;;;24.80;99.90;;;;;;5092896;28;20477;-68
2021/06/21 05:00:51;;;;;;;13.93;12.63;;;24.70;99.90;;;;;;5092423;28;20461;-68
2021/06/21 05:03:18;;;;;;;11.80;10.80;;;24.70;99.90;;;;;;5092932;28;20461;-68
2021/06/21 05:05:45;;;;;;;13.17;12.17;;;24.70;99.90;;;;;;5092575;28;20469;-68
2021/06/21 05:08:12;;;;;;;12.43;11.07;;;24.70;99.90;;;;;;5092668;28;21028;-68
2021/06/21 05:10:40;;;;;;;12.90;11.80;;;24.70;99.90;;;;;;5092363;28;20476;-68
2021/06/21 05:13:08;;;;;;;13.43;12.30;;;24.70;99.90;;;;;;5092887;28;20473;-68
2021/06/21 05:15:35;;;;;;;12.90;11.87;;;24.70;99.90;;;;;;5092400;28;20861;-68
2021/06/21 05:18:02;;;;;;;13.20;11.90;;;24.60;99.90;;;;;;5092611;28;20461;-68
2021/06/21 05:20:29;;;;;;;13.13;12.13;;;24.60;99.90;;;;;;5092670;28;20457;-68
2021/06/21 05:22:56;;;;;;;13.60;12.33;;;24.50;99.90;;;;;;5092076;28;20449;-68
2021/06/21 05:25:23;;;;;;;14.30;13.13;;;24.50;99.90;;;;;;5092569;28;20982;-68
2021/06/21 05:27:51;;;;;;;14.07;12.67;;;24.40;99.90;;;;;;5092162;28;20462;-68
2021/06/21 05:30:19;;;;;;;13.00;11.70;;;24.40;99.90;;;;;;5092693;28;20545;-68
2021/06/21 05:32:45;;;;;;;14.67;13.00;;;24.40;99.90;;;;;;5092116;28;20991;-68
2021/06/21 05:35:13;;;;;;;14.47;13.07;;;24.40;99.90;;;;;;5092564;28;20465;-68
2021/06/21 05:37:40;;;;;;;14.27;12.97;;;24.40;99.90;;;;;;5092101;28;20487;-68
2021/06/21 05:40:08;;;;;;;13.37;12.03;;;24.40;99.90;;;;;;5092598;28;20465;-67
2021/06/21 05:42:35;;;;;;;13.00;11.53;;;24.40;99.90;;;;;;5077110;28;20466;-68
2021/06/21 05:45:04;;;;;;;12.10;11.03;;;24.50;99.90;;;;;;5074433;28;20469;-67
2021/06/21 05:47:31;;;;;;;13.03;11.97;;;24.50;99.90;;;;;;5076198;28;20477;-68
2021/06/21 05:49:58;;;;;;;14.13;11.90;;;24.70;99.90;;;;;;5075925;28;20465;-68
2021/06/21 05:52:25;;;;;;;12.17;11.17;;;24.70;99.90;;;;;;5076390;28;20470;-68
2021/06/21 05:54:58;;;;;;;12.63;11.63;;;24.90;99.90;;;;;;5075688;28;20469;-68
2021/06/21 05:57:25;;;;;;;14.67;13.37;;;25.00;99.90;;;;;;5076200;28;20955;-68
2021/06/21 05:59:52;;;;;;;13.63;12.63;;;25.00;99.90;;;;;;5075757;28;20470;-68
2021/06/21 06:02:20;;;;;;;12.53;11.30;;;25.20;99.90;;;;;;5076108;28;20506;-69
2021/06/21 06:04:47;;;;;;;12.13;11.33;;;25.30;99.90;;;;;;5075478;28;20994;-68
2021/06/21 06:07:14;;;;;;;12.90;11.73;;;25.40;99.90;;;;;;5075994;28;20815;-68
2021/06/21 06:09:41;;;;;;;13.13;12.10;;;25.60;99.90;;;;;;5075567;28;20480;-69
2021/06/21 06:12:09;;;;;;;17.80;16.20;;;25.80;99.90;;;;;;5075722;28;20474;-69
2021/06/21 06:14:36;;;;;;;19.90;17.90;;;25.90;99.90;;;;;;5081608;28;20465;-69
2021/06/21 06:17:03;;;;;;;14.43;13.13;;;26.00;99.90;;;;;;5096026;28;20461;-69
2021/06/21 06:19:31;;;;;;;16.30;14.70;;;26.10;99.90;;;;;;5095921;28;20457;-68
2021/06/21 06:21:58;;;;;;;16.27;14.93;;;26.10;99.90;;;;;;5089636;28;20494;-68
2021/06/21 06:24:25;;;;;;;13.77;12.77;;;26.20;99.90;;;;;;5075626;28;21268;-68
2021/06/21 06:26:52;;;;;;;15.87;13.87;;;26.30;99.90;;;;;;5075196;28;20490;-68
2021/06/21 06:29:20;;;;;;;15.87;14.37;;;26.40;99.90;;;;;;5075303;28;20466;-69
2021/06/21 06:31:48;;;;;;;16.47;14.60;;;26.50;99.90;;;;;;5075077;28;20472;-69
2021/06/21 06:34:15;;;;;;;15.67;13.83;;;26.60;99.90;;;;;;5075358;28;20469;-68
2021/06/21 06:36:44;;;;;;;13.80;12.50;;;26.80;99.90;;;;;;5075051;28;20465;-68
2021/06/21 06:39:10;;;;;;;15.23;13.90;;;26.90;99.90;;;;;;5075192;28;20744;-68
2021/06/21 06:41:37;;;;;;;15.20;13.97;;;27.00;99.90;;;;;;5082426;28;20462;-69
2021/06/21 06:44:04;;;;;;;19.50;14.80;;;27.00;99.70;;;;;;5095116;28;20472;-68
2021/06/21 06:46:31;;;;;;;16.57;11.70;;;27.10;99.50;;;;;;5095440;28;20468;-68
2021/06/21 06:48:59;;;;;;;16.37;14.60;;;27.20;99.40;;;;;;5094828;28;20488;-69
2021/06/21 06:51:28;;;;;;;15.20;13.80;;;27.30;99.60;;;;;;5095309;28;20457;-68
2021/06/21 06:54:03;;;;;;;14.90;13.63;;;27.40;99.30;;;;;;5094847;28;20466;-68
2021/06/21 06:59:15;;;;;;;15.77;14.50;;;27.80;98.40;;;;;;5094934;28;21297;-69
2021/06/21 07:01:42;;;;;;;14.80;13.70;;;28.00;97.70;;;;;;5095452;28;20453;-68
2021/06/21 07:04:09;;;;;;;14.97;13.63;;;28.00;97.30;;;;;;5094580;28;20467;-69
2021/06/21 07:06:36;;;;;;;15.47;13.97;;;28.20;96.90;;;;;;5095262;28;20986;-69
2021/06/21 07:09:04;;;;;;;13.70;12.47;;;28.40;96.70;;;;;;5094606;28;20813;-69
2021/06/21 07:11:35;;;;;;;16.43;14.77;;;28.50;96.40;;;;;;5094943;28;20476;-69
2021/06/21 07:14:02;;;;;;;15.37;13.87;;;28.60;95.90;;;;;;5094411;28;20453;-69
2021/06/21 07:16:29;;;;;;;13.20;12.00;;;28.60;95.60;;;;;;5095134;28;20472;-69
2021/06/21 07:18:56;;;;;;;13.80;12.40;;;28.70;95.40;;;;;;5094207;28;20993;-69
2021/06/21 07:21:23;;;;;;;13.60;12.43;;;28.90;95.00;;;;;;5094835;28;20483;-68
2021/06/21 07:23:49;;;;;;;13.20;12.13;;;29.00;94.70;;;;;;5094519;28;20993;-69
2021/06/21 07:26:19;;;;;;;11.90;10.93;;;29.20;94.50;;;;;;5094274;28;20468;-68
2021/06/21 07:28:46;;;;;;;14.03;12.73;;;29.30;94.20;;;;;;5094792;28;20875;-69
2021/06/21 07:31:14;;;;;;;13.10;12.03;;;29.30;93.90;;;;;;5094141;28;20454;-68
2021/06/21 07:33:41;;;;;;;14.20;13.07;;;29.40;94.00;;;;;;5094386;28;20472;-68
2021/06/21 07:36:08;;;;;;;13.67;12.47;;;29.50;93.90;;;;;;5094270;28;20544;-68
2021/06/21 07:38:35;;;;;;;13.27;12.07;;;29.70;93.60;;;;;;5094363;28;20465;-69
2021/06/21 07:41:02;;;;;;;12.63;11.53;;;29.80;93.40;;;;;;5091888;28;20465;-68
2021/06/21 07:43:30;;;;;;;14.83;13.53;;;30.00;93.00;;;;;;5074285;28;20480;-68
2021/06/21 07:45:57;;;;;;;15.20;13.87;;;30.20;92.70;;;;;;5073773;28;20557;-68
2021/06/21 07:48:24;;;;;;;14.47;13.07;;;30.40;92.20;;;;;;5073840;28;20466;-69
2021/06/21 07:50:51;;;;;;;13.80;11.80;;;30.50;91.70;;;;;;5073865;28;20470;-68
2021/06/21 07:53:18;;;;;;;12.67;11.50;;;30.70;91.40;;;;;;5073527;28;20523;-68
2021/06/21 07:55:45;;;;;;;12.60;11.60;;;30.80;91.40;;;;;;5073862;28;20807;-69
2021/06/21 07:58:12;;;;;;;13.83;12.50;;;30.90;90.80;;;;;;5073515;28;20480;-68
2021/06/21 08:00:40;;;;;;;12.87;11.80;;;31.00;90.40;;;;;;5090615;28;20465;-69
2021/06/21 08:03:10;;;;;;;14.60;12.20;;;31.10;90.30;;;;;;5093373;28;20501;-68
2021/06/21 08:05:38;;;;;;;12.63;10.80;;;31.20;89.30;;;;;;5093942;28;20472;-68
2021/06/21 08:08:06;;;;;;;11.87;10.90;;;31.30;89.10;;;;;;5093319;28;20982;-68
2021/06/21 08:10:33;;;;;;;12.60;11.60;;;31.30;88.30;;;;;;5093929;28;20461;-69
2021/06/21 08:13:00;;;;;;;10.63;9.67;;;31.40;88.30;;;;;;5093603;28;20472;-68
2021/06/21 08:15:27;;;;;;;9.30;8.40;;;31.40;87.80;;;;;;5093749;28;20461;-69
2021/06/21 08:17:55;;;;;;;9.90;9.10;;;31.50;87.00;;;;;;5093685;28;20544;-68
2021/06/21 08:20:22;;;;;;;9.07;8.17;;;31.60;86.40;;;;;;5093396;28;20456;-68
2021/06/21 08:22:49;;;;;;;9.73;8.87;;;31.70;86.10;;;;;;5093659;28;20491;-68
2021/06/21 08:25:16;;;;;;;8.87;7.83;;;31.80;85.00;;;;;;5093170;28;20491;-68
2021/06/21 08:27:43;;;;;;;9.57;6.97;;;31.80;84.10;;;;;;5093431;28;20479;-69
2021/06/21 08:30:11;;;;;;;10.90;6.37;;;31.90;82.80;;;;;;5093228;28;20461;-69
2021/06/21 08:32:39;;;;;;;7.40;6.50;;;32.00;81.90;;;;;;5093470;28;20540;-68
2021/06/21 08:35:09;;;;;;;10.47;5.23;;;32.00;81.50;;;;;;5092934;28;20504;-69
2021/06/21 08:37:36;;;;;;;7.80;5.70;;;32.10;79.80;;;;;;5093132;28;20556;-69
2021/06/21 08:40:04;;;;;;;12.53;7.47;;;32.10;78.90;;;;;;5092979;28;20480;-69
2021/06/21 08:42:31;;;;;;;7.83;5.10;;;32.20;78.10;;;;;;5078697;28;20462;-68
2021/06/21 08:45:01;;;;;;;7.77;6.03;;;32.20;77.70;;;;;;5072846;28;20466;-68
2021/06/21 08:47:29;;;;;;;8.87;6.80;;;32.20;77.10;;;;;;5072711;28;21333;-68
2021/06/21 08:49:57;;;;;;;11.90;5.83;;;32.20;76.70;;;;;;5072779;28;20496;-68
2021/06/21 08:52:25;;;;;;;8.13;4.97;;;32.20;76.70;;;;;;5072400;28;20485;-68
2021/06/21 08:54:54;;;;;;;8.73;6.73;;;32.10;76.80;;;;;;5073176;28;20995;-68
2021/06/21 08:57:21;;;;;;;5.87;5.10;;;32.20;76.90;;;;;;5072286;28;20467;-69
2021/06/21 08:59:48;;;;;;;7.00;3.80;;;32.20;76.70;;;;;;5072799;28;20960;-69
2021/06/21 09:02:15;;;;;;;3.60;2.93;;;32.10;75.10;;;;;;5072470;28;20465;-69
2021/06/21 09:04:42;;;;;;;4.30;2.80;;;32.00;73.90;;;;;;5072639;28;20478;-70
2021/06/21 09:07:18;;;;;;;4.40;2.90;;;32.00;73.20;;;;;;5072060;28;20482;-68
2021/06/21 09:09:47;;;;;;;3.07;2.87;;;31.90;73.20;;;;;;5072823;28;20533;-68
2021/06/21 09:12:14;;;;;;;3.73;2.77;;;31.80;72.50;;;;;;5072054;28;20962;-68
2021/06/21 09:14:41;;;;;;;3.43;3.13;;;31.70;73.10;;;;;;5079230;28;20973;-69
2021/06/21 09:17:10;;;;;;;4.63;4.13;;;31.60;73.00;;;;;;5092469;28;20480;-67
2021/06/21 09:19:52;;;;;;;3.90;2.90;;;31.50;72.70;;;;;;5092226;28;21036;-68
2021/06/21 09:22:24;;;;;;;3.33;2.50;;;31.50;73.00;;;;;;5092351;28;20465;-68
2021/06/21 09:24:52;;;;;;;4.53;2.73;;;31.40;73.80;;;;;;5092457;28;20461;-68
2021/06/21 09:27:21;;;;;;;7.00;5.53;;;31.30;74.40;;;;;;5092299;28;21102;-68
2021/06/21 09:29:48;;;;;;;11.10;10.20;;;31.30;74.90;;;;;;5092694;28;20496;-68
2021/06/21 09:32:15;;;;;;;6.30;5.70;;;31.30;75.00;;;;;;5092024;28;20500;-66
2021/06/21 09:34:45;;;;;;;5.30;4.90;;;31.30;75.00;;;;;;5092738;28;20806;-68
2021/06/21 09:37:16;;;;;;;4.10;3.57;;;31.30;75.50;;;;;;5092029;28;20468;-68
2021/06/21 09:39:45;;;;;;;2.80;2.60;;;31.30;76.00;;;;;;5092593;28;20789;-68
2021/06/21 09:42:19;;;;;;;2.80;2.60;;;31.20;75.30;;;;;;5080301;28;20556;-68
2021/06/21 09:44:48;;;;;;;4.53;3.70;;;31.20;75.80;;;;;;5072281;28;20457;-69
2021/06/21 09:47:24;;;;;;;4.17;3.40;;;31.10;76.00;;;;;;5071733;28;20463;-68
2021/06/21 09:50:02;;;;;;;3.37;3.07;;;31.10;75.60;;;;;;5072187;28;20491;-68
2021/06/21 09:52:37;;;;;;;4.67;3.30;;;31.10;77.00;;;;;;5071856;28;20936;-69
2021/06/21 09:55:18;;;;;;;3.70;3.37;;;31.10;77.30;;;;;;5072121;28;20462;-68
2021/06/21 09:57:48;;;;;;;5.43;3.50;;;31.10;76.60;;;;;;5072767;28;20466;-68
2021/06/21 10:00:17;;;;;;;4.67;4.27;;;31.00;76.40;;;;;;5071984;28;20463;-68
2021/06/21 10:02:44;;;;;;;8.93;7.30;;;31.00;76.30;;;;;;5072102;28;20481;-67
2021/06/21 10:05:22;;;;;;;16.53;10.90;;;31.10;77.00;;;;;;5071804;28;20472;-67
2021/06/21 10:07:50;;;;;;;30.53;28.13;;;31.00;77.60;;;;;;5072028;28;20474;-68
2021/06/21 10:10:21;;;;;;;10.40;9.40;;;31.00;77.80;;;;;;5071747;28;20468;-68
2021/06/21 10:12:50;;;;;;;5.83;5.23;;;31.00;78.00;;;;;;5071850;28;20490;-68
2021/06/21 10:15:18;;;;;;;6.23;5.23;;;31.00;77.80;;;;;;5083334;28;20458;-69
2021/06/21 10:17:46;;;;;;;8.23;4.93;;;31.00;78.10;;;;;;5092097;28;20469;-68
2021/06/21 10:20:13;;;;;;;6.37;5.77;;;31.00;78.10;;;;;;5091684;28;21937;-68
2021/06/21 10:22:41;;;;;;;10.03;7.50;;;31.00;78.30;;;;;;5092335;28;20473;-69
2021/06/21 10:25:10;;;;;;;6.67;6.07;;;31.00;78.70;;;;;;5091484;28;20479;-69
2021/06/21 10:27:39;;;;;;;5.27;4.73;;;31.00;78.40;;;;;;5092128;28;20470;-68
2021/06/21 10:30:11;;;;;;;4.80;4.40;;;31.00;78.40;;;;;;5091883;28;20473;-69
2021/06/21 10:32:39;;;;;;;4.07;3.70;;;31.00;78.80;;;;;;5094864;28;20508;-69
2021/06/21 10:35:06;;;;;;;8.63;6.67;;;31.00;78.70;;;;;;5095322;28;20466;-69
2021/06/21 10:37:35;;;;;;;4.63;4.23;;;31.00;78.90;;;;;;5090624;28;20466;-68
2021/06/21 10:40:06;;;;;;;4.30;4.00;;;30.90;78.60;;;;;;5074900;28;20489;-69
2021/06/21 10:42:36;;;;;;;4.00;3.70;;;30.90;78.80;;;;;;5090108;28;20483;-68
2021/06/21 10:45:04;;;;;;;8.27;7.57;;;30.90;79.10;;;;;;5095052;28;20481;-68
2021/06/21 10:47:35;;;;;;;6.70;5.83;;;30.90;79.40;;;;;;5095551;28;20518;-68
2021/06/21 10:50:10;;;;;;;78.80;72.40;;;31.00;79.10;;;;;;5094849;28;20492;-69
2021/06/21 10:52:48;;;;;;;11.90;10.00;;;31.10;79.10;;;;;;5095357;28;20465;-68
2021/06/21 10:55:41;;;;;;;7.37;6.80;;;31.10;78.90;;;;;;5095053;28;20978;-69
2021/06/21 10:58:47;;;;;;;7.97;6.10;;;31.10;78.60;;;;;;5094876;28;20465;-69
2021/06/21 11:01:23;;;;;;;13.50;6.50;;;31.10;79.20;;;;;;5092908;28;20461;-69
2021/06/21 11:03:52;;;;;;;8.73;6.13;;;31.00;79.60;;;;;;5094964;28;20467;-69
2021/06/21 11:06:37;;;;;;;5.93;5.27;;;31.10;79.60;;;;;;5094744;28;20454;-68
2021/06/21 11:09:07;;;;;;;6.40;5.40;;;31.10;79.50;;;;;;5094627;28;20548;-69
2021/06/21 11:11:45;;;;;;;5.63;4.27;;;31.00;79.10;;;;;;5094964;28;20470;-69
2021/06/21 11:14:21;;;;;;;5.40;4.90;;;31.00;79.10;;;;;;5094342;28;20461;-68
2021/06/21 11:16:49;;;;;;;6.67;4.80;;;31.00;79.00;;;;;;5094835;28;20464;-68
2021/06/21 11:19:30;;;;;;;7.93;5.43;;;31.00;78.70;;;;;;5094390;28;20469;-68
2021/06/21 11:21:59;;;;;;;5.23;4.70;;;31.10;78.90;;;;;;5094985;28;20465;-69
2021/06/21 11:24:49;;;;;;;7.87;5.30;;;31.10;78.90;;;;;;5094502;28;20869;-69
2021/06/21 11:27:18;;;;;;;4.53;4.23;;;31.10;78.80;;;;;;5094390;28;20818;-68
2021/06/21 11:29:47;;;;;;;5.27;4.77;;;31.10;78.50;;;;;;5094789;28;20469;-68
2021/06/21 11:32:16;;;;;;;4.23;3.93;;;31.00;78.70;;;;;;5094323;28;20472;-69
2021/06/21 11:34:50;;;;;;;5.63;5.13;;;31.00;79.00;;;;;;5094639;28;20457;-69
2021/06/21 11:37:30;;;;;;;4.63;4.10;;;31.00;78.70;;;;;;5094183;28;20472;-69
2021/06/21 11:40:27;;;;;;;11.23;10.43;;;31.00;78.40;;;;;;5094459;28;20556;-68
2021/06/21 11:43:12;;;;;;;5.40;5.00;;;31.00;78.10;;;;;;5076036;28;20494;-69
2021/06/21 11:45:55;;;;;;;5.30;4.03;;;31.00;77.90;;;;;;5074265;28;20470;-69
2021/06/21 11:48:23;;;;;;;11.00;8.97;;;31.00;77.90;;;;;;5074293;28;20550;-69
2021/06/21 11:50:53;;;;;;;12.50;11.33;;;30.90;78.00;;;;;;5073793;28;20463;-69
2021/06/21 11:53:20;;;;;;;17.33;15.70;;;30.90;78.00;;;;;;5074107;28;20465;-69
2021/06/21 11:55:47;;;;;;;8.43;7.60;;;30.90;77.80;;;;;;5073405;28;20458;-68
2021/06/21 11:58:14;;;;;;;5.80;5.13;;;30.90;77.80;;;;;;5073973;28;20481;-69
2021/06/21 12:00:41;;;;;;;4.60;4.13;;;30.90;78.00;;;;;;5073564;28;20797;-69
2021/06/21 12:03:09;;;;;;;4.93;4.57;;;30.80;78.30;;;;;;5073638;28;20474;-69
2021/06/21 12:05:38;;;;;;;4.17;3.77;;;30.90;78.60;;;;;;5073160;28;20474;-69
2021/06/21 12:08:16;;;;;;;4.20;3.80;;;30.80;78.30;;;;;;5073729;28;20868;-69
2021/06/21 12:10:44;;;;;;;3.63;3.13;;;30.80;78.00;;;;;;5073165;28;20468;-67
2021/06/21 12:13:11;;;;;;;4.30;3.90;;;30.90;77.40;;;;;;5075290;28;20551;-67
2021/06/21 12:15:40;;;;;;;7.27;5.17;;;30.90;77.10;;;;;;5093445;28;20453;-70
2021/06/21 12:18:07;;;;;;;5.13;4.63;;;30.90;77.20;;;;;;5093668;28;20540;-68
2021/06/21 12:20:35;;;;;;;5.10;4.00;;;30.90;77.40;;;;;;5093349;28;20982;-68
2021/06/21 12:23:05;;;;;;;130.60;121.40;;;30.90;77.10;;;;;;5093864;28;20457;-69
2021/06/21 12:25:35;;;;;;;966.17;862.23;;;30.90;77.40;;;;;;5093187;28;20552;-68
2021/06/21 12:28:13;;;;;;;956.80;865.40;;;30.90;77.70;;;;;;5093314;28;20985;-69
2021/06/21 12:30:42;;;;;;;494.17;448.87;;;31.00;77.90;;;;;;5093124;28;20464;-67
2021/06/21 12:33:28;;;;;;;309.40;286.00;;;31.00;77.30;;;;;;5093347;28;20546;-67
2021/06/21 12:36:16;;;;;;;107.40;98.67;;;31.10;77.30;;;;;;5093196;28;20456;-68
2021/06/21 12:38:46;;;;;;;31.37;28.67;;;31.00;77.00;;;;;;5093126;28;20851;-69
2021/06/21 12:41:19;;;;;;;67.83;62.13;;;31.10;76.70;;;;;;5089510;28;20472;-68
2021/06/21 12:43:57;;;;;;;41.27;37.67;;;31.10;76.70;;;;;;5072648;28;20465;-69
2021/06/21 12:46:26;;;;;;;26.67;24.47;;;31.10;76.60;;;;;;5072997;28;20474;-68
2021/06/21 12:48:54;;;;;;;9.00;5.40;;;31.10;76.70;;;;;;5072384;28;20463;-68